createdAt,value
2022-11-11T00:01:33.089Z,99010.36
2022-11-11T00:04:18.215Z,99011.13
2022-11-11T00:07:03.988Z,99015.69
2022-11-11T00:09:49.948Z,99012.15
2022-11-11T00:12:35.713Z,99012.79
2022-11-11T00:15:21.209Z,99014.88
2022-11-11T00:18:28.922Z,99015.14
2022-11-11T00:21:26.841Z,99019.59
2022-11-11T00:24:43.223Z,99026.63
2022-11-11T00:27:28.485Z,99022.93
2022-11-11T00:30:14.567Z,99024.40
2022-11-11T00:32:59.862Z,99030.02
2022-11-11T00:35:54.587Z,99031.77
2022-11-11T00:38:45.670Z,99030.20
2022-11-11T00:41:31.747Z,99029.63
2022-11-11T00:44:17.396Z,99032.16
2022-11-11T00:47:21.749Z,99033.66
2022-11-11T00:50:39.691Z,99032.02
2022-11-11T00:53:28.538Z,99027.43
2022-11-11T00:56:13.909Z,99024.98
2022-11-11T00:58:59.722Z,99022.29
2022-11-11T01:01:45.689Z,99024.04
2022-11-11T01:04:31.070Z,99025.13
2022-11-11T01:07:16.198Z,99024.27
2022-11-11T01:10:01.633Z,99021.16
2022-11-11T01:12:47.307Z,99020.17
2022-11-11T01:15:33.821Z,99019.73
2022-11-11T01:18:23.080Z,99018.77
2022-11-11T01:21:08.678Z,99013.52
2022-11-11T01:23:54.360Z,99010.71
2022-11-11T01:26:40.031Z,99012.38
2022-11-11T01:29:25.734Z,99010.85
2022-11-11T01:32:11.194Z,99010.65
2022-11-11T01:34:56.474Z,99012.89
2022-11-11T01:37:42.250Z,99016.14
2022-11-11T01:40:27.888Z,99026.25
2022-11-11T01:43:23.168Z,99032.02
2022-11-11T01:46:21.563Z,99032.60
2022-11-11T01:49:18.347Z,99031.48
2022-11-11T01:52:12.784Z,99031.67
2022-11-11T01:55:14.706Z,99030.89
2022-11-11T01:58:04.703Z,99038.64
2022-11-11T02:00:50.691Z,99044.25
2022-11-11T02:03:39.996Z,99046.61
2022-11-11T02:06:27.418Z,99043.59
2022-11-11T02:09:13.286Z,99043.08
2022-11-11T02:12:22.132Z,99049.55
2022-11-11T02:15:07.719Z,99052.01
2022-11-11T02:17:53.547Z,99052.33
2022-11-11T02:20:44.134Z,99054.79
2022-11-11T02:23:39.574Z,99056.63
2022-11-11T02:26:25.942Z,99054.05
2022-11-11T02:29:16.652Z,99061.46
2022-11-11T02:32:02.201Z,99069.27
2022-11-11T02:34:47.379Z,99068.98
2022-11-11T02:37:32.914Z,99068.89
2022-11-11T02:40:33.624Z,99070.14
2022-11-11T02:43:19.159Z,99069.90
2022-11-11T02:46:06.399Z,99071.27
2022-11-11T02:48:52.154Z,99074.45
2022-11-11T02:51:37.765Z,99077.92
2022-11-11T02:54:24.063Z,99078.28
2022-11-11T02:57:09.984Z,99080.65
2022-11-11T02:59:58.219Z,99084.77
2022-11-11T03:02:43.625Z,99084.62
2022-11-11T03:05:29.030Z,99087.56
2022-11-11T03:08:15.359Z,99085.79
2022-11-11T03:11:00.963Z,99090.02
2022-11-11T03:13:46.333Z,99089.41
2022-11-11T03:16:50.436Z,99093.31
2022-11-11T03:19:36.686Z,99091.17
2022-11-11T03:25:39.930Z,99096.63
2022-11-11T03:28:25.317Z,99101.05
2022-11-11T03:31:11.210Z,99099.73
2022-11-11T03:34:16.698Z,99103.92
2022-11-11T03:37:25.643Z,99103.73
2022-11-11T03:40:11.287Z,99105.00
2022-11-11T03:43:02.698Z,99106.37
2022-11-11T03:45:54.847Z,99107.88
2022-11-11T03:48:40.131Z,99108.55
2022-11-11T03:51:25.499Z,99106.83
2022-11-11T03:54:10.948Z,99110.19
2022-11-11T03:57:16.352Z,99112.30
2022-11-11T04:00:01.585Z,99113.06
2022-11-11T04:03:05.738Z,99115.48
2022-11-11T04:06:10.406Z,99115.67
2022-11-11T04:09:14.770Z,99115.59
2022-11-11T04:12:01.427Z,99121.43
2022-11-11T04:15:05.289Z,99124.94
2022-11-11T04:17:51.237Z,99129.48
2022-11-11T04:20:59.618Z,99132.45
2022-11-11T04:23:44.844Z,99130.92
2022-11-11T04:26:29.936Z,99133.45
2022-11-11T04:29:27.791Z,99137.79
2022-11-11T04:32:34.673Z,99140.85
2022-11-11T04:35:20.244Z,99143.27
2022-11-11T04:38:24.901Z,99144.93
2022-11-11T04:41:12.479Z,99146.06
2022-11-11T04:44:16.835Z,99146.20
2022-11-11T04:47:02.650Z,99146.55
2022-11-11T04:49:48.174Z,99143.92
2022-11-11T04:52:33.961Z,99141.11
2022-11-11T04:55:37.925Z,99144.89
2022-11-11T04:58:25.392Z,99151.50
2022-11-11T05:01:30.867Z,99152.99
2022-11-11T05:04:16.535Z,99160.12
2022-11-11T05:07:37.242Z,99168.04
2022-11-11T05:10:22.490Z,99172.90
2022-11-11T05:13:26.547Z,99170.06
2022-11-11T05:16:39.381Z,99171.55
2022-11-11T05:19:43.541Z,99174.96
2022-11-11T05:22:35.181Z,99179.84
2022-11-11T05:25:28.857Z,99187.52
2022-11-11T05:28:13.994Z,99185.33
2022-11-11T05:30:59.677Z,99188.20
2022-11-11T05:33:45.132Z,99193.37
2022-11-11T05:36:30.530Z,99197.89
2022-11-11T05:39:16.154Z,99200.19
2022-11-11T05:42:01.487Z,99203.46
2022-11-11T05:44:47.299Z,99202.30
2022-11-11T05:47:32.881Z,99199.95
2022-11-11T05:50:18.530Z,99203.19
2022-11-11T05:53:03.956Z,99205.13
2022-11-11T05:55:52.895Z,99204.38
2022-11-11T05:58:38.746Z,99210.72
2022-11-11T06:01:24.391Z,99215.77
2022-11-11T06:04:15.103Z,99218.45
2022-11-11T06:07:03.076Z,99231.14
2022-11-11T06:09:48.557Z,99239.46
2022-11-11T06:12:54.165Z,99241.80
2022-11-11T06:15:40.671Z,99245.55
2022-11-11T06:18:30.968Z,99246.77
2022-11-11T06:21:17.623Z,99249.05
2022-11-11T06:24:03.344Z,99253.86
2022-11-11T06:26:49.010Z,99255.35
2022-11-11T06:29:34.467Z,99259.90
2022-11-11T06:32:19.513Z,99263.96
2022-11-11T06:35:05.682Z,99265.73
2022-11-11T06:37:51.193Z,99274.04
2022-11-11T06:40:36.756Z,99276.57
2022-11-11T06:43:23.084Z,99277.40
2022-11-11T06:46:23.315Z,99275.84
2022-11-11T06:49:09.559Z,99278.74
2022-11-11T06:52:09.099Z,99282.69
2022-11-11T06:54:54.755Z,99282.52
2022-11-11T06:58:17.490Z,99275.87
2022-11-11T07:01:08.490Z,99284.59
2022-11-11T07:03:53.738Z,99287.42
2022-11-11T07:06:51.970Z,99289.94
2022-11-11T07:09:38.340Z,99288.91
2022-11-11T07:12:54.256Z,99288.95
2022-11-11T07:16:05.515Z,99293.41
2022-11-11T07:18:51.720Z,99296.45
2022-11-11T07:21:38.219Z,99304.90
2022-11-11T07:24:25.033Z,99308.99
2022-11-11T07:27:13.189Z,99308.87
2022-11-11T07:29:58.907Z,99312.35
2022-11-11T07:32:51.675Z,99311.38
2022-11-11T07:35:36.945Z,99311.26
2022-11-11T07:38:23.077Z,99310.54
2022-11-11T07:41:09.345Z,99311.14
2022-11-11T07:43:55.017Z,99311.16
2022-11-11T07:46:40.815Z,99312.07
2022-11-11T07:49:26.817Z,99311.54
2022-11-11T07:52:37.095Z,99306.64
2022-11-11T07:55:23.630Z,99303.19
2022-11-11T07:58:09.205Z,99298.88
2022-11-11T08:01:03.233Z,99302.48
2022-11-11T08:03:51.792Z,99305.11
2022-11-11T08:06:43.353Z,99307.15
2022-11-11T08:09:29.484Z,99311.36
2022-11-11T08:12:33.769Z,99315.13
2022-11-11T08:15:19.677Z,99317.02
2022-11-11T08:18:05.375Z,99319.97
2022-11-11T08:20:54.876Z,99323.42
2022-11-11T08:24:22.572Z,99324.09
2022-11-11T08:26:46.992Z,99328.58
2022-11-11T08:29:32.729Z,99329.58
2022-11-11T08:32:18.134Z,99334.34
2022-11-11T08:35:04.158Z,99340.39
2022-11-11T08:37:49.742Z,99340.83
2022-11-11T08:40:36.087Z,99346.70
2022-11-11T08:43:23.095Z,99347.94
2022-11-11T08:46:11.157Z,99352.14
2022-11-11T08:48:56.637Z,99358.43
2022-11-11T08:51:44.902Z,99361.04
2022-11-11T08:54:32.313Z,99363.70
2022-11-11T08:57:18.067Z,99366.48
2022-11-11T09:00:04.720Z,99371.63
2022-11-11T09:02:51.033Z,99377.89
2022-11-11T09:05:40.477Z,99375.91
2022-11-11T09:08:27.352Z,99382.37
2022-11-11T09:12:22.219Z,99390.25
2022-11-11T09:15:08.048Z,99396.41
2022-11-11T09:18:04.178Z,99397.90
2022-11-11T09:20:59.596Z,99403.19
2022-11-11T09:23:45.224Z,99410.46
2022-11-11T09:26:39.252Z,99413.87
2022-11-11T09:29:24.803Z,99415.01
2022-11-11T09:32:10.616Z,99416.11
2022-11-11T09:35:01.491Z,99418.05
2022-11-11T09:37:55.064Z,99418.35
2022-11-11T09:41:08.260Z,99415.98
2022-11-11T09:43:55.397Z,99420.15
2022-11-11T09:46:57.202Z,99423.48
2022-11-11T09:49:53.305Z,99422.95
2022-11-11T09:53:04.365Z,99416.52
2022-11-11T09:55:55.220Z,99411.30
2022-11-11T09:58:51.572Z,99407.23
2022-11-11T10:01:52.099Z,99401.30
2022-11-11T10:04:54.481Z,99397.69
2022-11-11T10:07:43.905Z,99389.20
2022-11-11T10:10:44.584Z,99385.00
2022-11-11T10:13:35.278Z,99381.33
2022-11-11T10:16:46.458Z,99382.46
2022-11-11T10:19:40.636Z,99379.64
2022-11-11T10:22:37.960Z,99384.33
2022-11-11T10:25:27.377Z,99376.12
2022-11-11T10:28:19.805Z,99369.77
2022-11-11T10:31:15.878Z,99367.75
2022-11-11T10:34:11.846Z,99365.40
2022-11-11T10:36:59.325Z,99360.16
2022-11-11T10:39:58.566Z,99354.99
2022-11-11T10:42:44.739Z,99350.29
2022-11-11T10:45:40.333Z,99350.31
2022-11-11T10:48:31.648Z,99344.56
2022-11-11T10:51:19.043Z,99339.36
2022-11-11T10:54:14.278Z,99341.29
2022-11-11T10:57:07.595Z,99334.64
2022-11-11T10:59:56.457Z,99331.70
2022-11-11T11:02:59.248Z,99328.45
2022-11-11T11:05:44.373Z,99324.63
2022-11-11T11:08:38.268Z,99320.50
2022-11-11T11:11:26.800Z,99318.70
2022-11-11T11:14:37.544Z,99315.77
2022-11-11T11:17:30.313Z,99313.45
2022-11-11T11:20:20.012Z,99308.98
2022-11-11T11:23:05.819Z,99310.27
2022-11-11T11:25:56.649Z,99305.06
2022-11-11T11:29:01.359Z,99303.50
2022-11-11T11:31:47.156Z,99299.63
2022-11-11T11:34:50.815Z,99293.42
2022-11-11T11:37:49.658Z,99292.23
2022-11-11T11:40:55.679Z,99292.35
2022-11-11T11:43:50.688Z,99292.07
2022-11-11T11:46:38.798Z,99290.40
2022-11-11T11:50:08.944Z,99289.13
2022-11-11T11:53:06.526Z,99288.75
2022-11-11T11:56:13.999Z,99283.59
2022-11-11T11:59:12.276Z,99278.42
2022-11-11T12:02:27.534Z,99274.30
2022-11-11T12:05:45.962Z,99274.61
2022-11-11T12:09:03.986Z,99274.16
2022-11-11T12:12:04.009Z,99277.11
2022-11-11T12:15:14.119Z,99277.70
2022-11-11T12:18:15.026Z,99281.49
2022-11-11T12:21:06.678Z,99286.20
2022-11-11T12:24:21.314Z,99285.61
2022-11-11T12:27:27.514Z,99284.55
2022-11-11T12:30:20.190Z,99286.41
2022-11-11T12:33:24.676Z,99285.26
2022-11-11T12:36:39.340Z,99283.50
2022-11-11T12:39:43.446Z,99287.36
2022-11-11T12:42:37.587Z,99289.74
2022-11-11T12:45:31.536Z,99288.95
2022-11-11T12:48:38.555Z,99292.80
2022-11-11T12:51:48.948Z,99290.54
2022-11-11T12:54:41.605Z,99296.12
2022-11-11T12:57:55.484Z,99296.11
2022-11-11T13:00:57.596Z,99299.75
2022-11-11T13:03:50.619Z,99305.83
2022-11-11T13:06:56.529Z,99306.80
2022-11-11T13:09:57.880Z,99302.42
2022-11-11T13:12:59.670Z,99300.66
2022-11-11T13:15:48.456Z,99299.52
2022-11-11T13:18:51.037Z,99299.90
2022-11-11T13:21:47.975Z,99299.81
2022-11-11T13:24:35.283Z,99305.04
2022-11-11T13:27:42.601Z,99308.68
2022-11-11T13:30:39.982Z,99309.59
2022-11-11T13:33:37.283Z,99312.10
2022-11-11T13:36:27.754Z,99309.21
2022-11-11T13:39:27.816Z,99313.47
2022-11-11T13:42:22.246Z,99320.06
2022-11-11T13:45:21.979Z,99322.95
2022-11-11T13:48:26.434Z,99323.48
2022-11-11T13:51:32.874Z,99321.66
2022-11-11T13:54:34.666Z,99318.98
2022-11-11T13:57:23.311Z,99315.19
2022-11-11T14:00:18.355Z,99314.61
2022-11-11T14:03:22.171Z,99311.41
2022-11-11T14:06:13.997Z,99311.35
2022-11-11T14:09:00.757Z,99316.21
2022-11-11T14:11:46.254Z,99313.23
2022-11-11T14:14:31.526Z,99319.35
2022-11-11T14:17:18.193Z,99317.75
2022-11-11T14:20:40.174Z,99315.30
2022-11-11T14:23:37.197Z,99313.27
2022-11-11T14:26:26.077Z,99314.59
2022-11-11T14:29:19.110Z,99312.29
2022-11-11T14:32:19.536Z,99311.82
2022-11-11T14:35:20.788Z,99318.09
2022-11-11T14:38:25.109Z,99316.62
2022-11-11T14:41:41.778Z,99318.26
2022-11-11T14:44:27.507Z,99316.70
2022-11-11T14:47:13.494Z,99313.84
2022-11-11T14:50:00.751Z,99313.70
2022-11-11T14:52:47.173Z,99307.66
2022-11-11T14:55:35.501Z,99301.89
2022-11-11T14:58:26.504Z,99298.11
2022-11-11T15:01:17.512Z,99296.31
2022-11-11T15:04:04.088Z,99285.99
2022-11-11T15:06:56.381Z,99287.90
2022-11-11T15:10:00.079Z,99288.02
2022-11-11T15:12:48.774Z,99286.61
2022-11-11T15:15:49.333Z,99291.45
2022-11-11T15:18:51.469Z,99292.17
2022-11-11T15:21:47.638Z,99297.13
2022-11-11T15:24:41.668Z,99302.54
2022-11-11T15:27:44.799Z,99310.42
2022-11-11T15:30:56.445Z,99310.27
2022-11-11T15:33:57.218Z,99314.80
2022-11-11T15:36:53.570Z,99317.59
2022-11-11T15:39:48.171Z,99312.50
2022-11-11T15:42:38.758Z,99310.45
2022-11-11T15:45:47.768Z,99309.92
2022-11-11T15:48:40.256Z,99324.30
2022-11-11T15:51:33.286Z,99335.80
2022-11-11T15:54:22.111Z,99336.30
2022-11-11T15:57:25.449Z,99332.30
2022-11-11T16:00:23.371Z,99322.48
2022-11-11T16:03:36.658Z,99326.70
2022-11-11T16:06:22.299Z,99326.10
2022-11-11T16:09:12.551Z,99327.94
2022-11-11T16:11:58.981Z,99331.41
2022-11-11T16:14:48.817Z,99334.98
2022-11-11T16:17:40.350Z,99336.52
2022-11-11T16:20:34.084Z,99335.79
2022-11-11T16:23:22.376Z,99337.89
2022-11-11T16:26:08.534Z,99340.66
2022-11-11T16:28:56.233Z,99341.91
2022-11-11T16:31:45.154Z,99345.92
2022-11-11T16:34:42.083Z,99348.86
2022-11-11T16:37:27.702Z,99355.59
2022-11-11T16:40:35.770Z,99362.29
2022-11-11T16:43:26.126Z,99361.05
2022-11-11T16:46:36.255Z,99357.05
2022-11-11T16:49:27.667Z,99354.73
2022-11-11T16:52:18.930Z,99356.95
2022-11-11T16:55:05.847Z,99351.91
2022-11-11T16:57:52.215Z,99344.57
2022-11-11T17:00:38.764Z,99347.20
2022-11-11T17:03:25.206Z,99345.98
2022-11-11T17:06:11.317Z,99340.11
2022-11-11T17:08:57.439Z,99336.54
2022-11-11T17:11:45.556Z,99345.01
2022-11-11T17:14:36.587Z,99348.61
2022-11-11T17:17:22.146Z,99344.90
2022-11-11T17:20:19.664Z,99344.24
2022-11-11T17:23:08.270Z,99348.81
2022-11-11T17:25:59.333Z,99352.61
2022-11-11T17:28:45.152Z,99359.38
2022-11-11T17:31:30.695Z,99357.43
2022-11-11T17:34:16.426Z,99357.35
2022-11-11T17:37:02.165Z,99357.26
2022-11-11T17:39:48.212Z,99358.36
2022-11-11T17:42:34.637Z,99360.08
2022-11-11T17:45:21.115Z,99361.79
2022-11-11T17:48:07.304Z,99360.70
2022-11-11T17:50:53.134Z,99361.30
2022-11-11T17:53:39.165Z,99364.95
2022-11-11T17:56:26.085Z,99369.15
2022-11-11T17:59:12.379Z,99366.16
2022-11-11T18:01:57.632Z,99368.59
2022-11-11T18:04:43.350Z,99373.27
2022-11-11T18:07:29.226Z,99379.51
2022-11-11T18:10:15.444Z,99377.02
2022-11-11T18:13:00.759Z,99374.84
2022-11-11T18:15:51.236Z,99372.42
2022-11-11T18:18:53.339Z,99364.80
2022-11-11T18:21:53.919Z,99360.23
2022-11-11T18:24:50.915Z,99358.63
2022-11-11T18:27:51.747Z,99358.05
2022-11-11T18:30:46.797Z,99351.24
2022-11-11T18:33:36.055Z,99353.23
2022-11-11T18:36:24.537Z,99350.61
2022-11-11T18:39:20.391Z,99355.02
2022-11-11T18:42:09.096Z,99357.68
2022-11-11T18:44:57.078Z,99363.55
2022-11-11T18:47:50.638Z,99364.16
2022-11-11T18:50:36.489Z,99367.38
2022-11-11T18:53:22.269Z,99366.05
2022-11-11T18:56:09.313Z,99363.02
2022-11-11T18:58:58.223Z,99366.77
2022-11-11T19:01:43.954Z,99368.98
2022-11-11T19:04:31.966Z,99370.55
2022-11-11T19:07:17.129Z,99375.13
2022-11-11T19:10:02.673Z,99380.52
2022-11-11T19:12:48.342Z,99375.59
2022-11-11T19:15:33.720Z,99373.23
2022-11-11T19:18:20.492Z,99372.15
2022-11-11T19:21:17.778Z,99371.73
2022-11-11T19:24:05.652Z,99376.04
2022-11-11T19:26:51.154Z,99379.00
2022-11-11T19:29:36.544Z,99380.16
2022-11-11T19:32:22.301Z,99384.45
2022-11-11T19:35:07.290Z,99388.45
2022-11-11T19:37:52.455Z,99382.55
2022-11-11T19:40:38.080Z,99377.67
2022-11-11T19:43:26.445Z,99376.55
2022-11-11T19:46:14.984Z,99375.20
2022-11-11T19:49:00.432Z,99372.98
2022-11-11T19:51:45.939Z,99367.27
2022-11-11T19:54:31.854Z,99365.08
2022-11-11T19:57:17.107Z,99367.79
2022-11-11T20:00:03.406Z,99367.07
2022-11-11T20:02:49.814Z,99367.11
2022-11-11T20:05:37.087Z,99370.87
2022-11-11T20:08:22.940Z,99370.38
2022-11-11T20:11:09.149Z,99373.02
2022-11-11T20:13:55.918Z,99377.39
2022-11-11T20:16:44.005Z,99377.02
2022-11-11T20:19:29.944Z,99380.63
2022-11-11T20:22:15.171Z,99388.12
2022-11-11T20:25:00.636Z,99388.36
2022-11-11T20:27:46.959Z,99387.79
2022-11-11T20:30:32.546Z,99389.59
2022-11-11T20:33:17.927Z,99389.10
2022-11-11T20:36:06.271Z,99392.73
2022-11-11T20:38:52.307Z,99392.90
2022-11-11T20:41:37.613Z,99394.20
2022-11-11T20:44:23.602Z,99394.78
2022-11-11T20:47:08.855Z,99401.44
2022-11-11T20:49:54.047Z,99401.30
2022-11-11T20:52:39.375Z,99397.39
2022-11-11T20:55:25.067Z,99399.06
2022-11-11T20:58:10.572Z,99400.96
2022-11-11T21:01:07.823Z,99395.79
2022-11-11T21:03:55.320Z,99391.88
2022-11-11T21:06:41.132Z,99392.34
2022-11-11T21:09:26.806Z,99391.60
2022-11-11T21:12:13.362Z,99395.46
2022-11-11T21:14:59.274Z,99389.08
2022-11-11T21:17:44.777Z,99397.38
2022-11-11T21:20:29.909Z,99399.84
2022-11-11T21:23:15.690Z,99397.61
2022-11-11T21:26:07.399Z,99398.07
2022-11-11T21:28:53.314Z,99395.47
2022-11-11T21:31:39.817Z,99394.53
2022-11-11T21:34:25.424Z,99396.23
2022-11-11T21:37:10.735Z,99396.27
2022-11-11T21:39:56.411Z,99395.37
2022-11-11T21:42:42.170Z,99398.71
2022-11-11T21:45:27.642Z,99399.79
2022-11-11T21:48:13.415Z,99394.98
2022-11-11T21:51:05.055Z,99392.65
2022-11-11T21:54:02.607Z,99394.36
2022-11-11T21:56:48.533Z,99395.34
2022-11-11T21:59:34.173Z,99391.27
2022-11-11T22:02:19.633Z,99391.23
2022-11-11T22:05:07.340Z,99383.08
2022-11-11T22:07:52.699Z,99379.79
2022-11-11T22:10:37.660Z,99380.02
2022-11-11T22:13:23.170Z,99379.18
2022-11-11T22:16:14.577Z,99378.35
2022-11-11T22:19:05.861Z,99372.98
2022-11-11T22:21:51.107Z,99374.91
2022-11-11T22:24:36.205Z,99379.71
2022-11-11T22:27:21.771Z,99378.02
2022-11-11T22:30:07.563Z,99377.96
2022-11-11T22:32:54.335Z,99375.70
2022-11-11T22:35:39.730Z,99378.87
2022-11-11T22:38:25.129Z,99378.02
2022-11-11T22:41:14.081Z,99375.77
2022-11-11T22:44:01.208Z,99372.66
2022-11-11T22:46:46.995Z,99374.80
2022-11-11T22:49:32.252Z,99370.36
2022-11-11T22:52:18.029Z,99362.23
2022-11-11T22:55:04.098Z,99367.38
2022-11-11T22:57:49.427Z,99367.28
2022-11-11T23:00:35.156Z,99361.91
2022-11-11T23:03:20.815Z,99364.61
2022-11-11T23:06:08.851Z,99365.44
2022-11-11T23:08:54.475Z,99361.09
2022-11-11T23:11:40.104Z,99354.08
2022-11-11T23:14:25.922Z,99345.27
2022-11-11T23:17:11.518Z,99342.15
2022-11-11T23:19:57.351Z,99339.70
2022-11-11T23:22:42.795Z,99336.58
2022-11-11T23:25:28.569Z,99336.69
2022-11-11T23:28:14.176Z,99328.07
2022-11-11T23:31:07.799Z,99328.09
2022-11-11T23:33:55.387Z,99327.01
2022-11-11T23:36:41.251Z,99321.77
2022-11-11T23:39:26.903Z,99324.27
2022-11-11T23:42:12.571Z,99324.50
2022-11-11T23:44:58.035Z,99321.63
2022-11-11T23:47:43.463Z,99321.23
2022-11-11T23:50:28.862Z,99317.66
2022-11-11T23:53:15.844Z,99317.31
2022-11-11T23:56:02.336Z,99321.27
2022-11-11T23:58:47.889Z,99324.34
